Back to top

Douglas, WY weather

Converse County Airport, Douglas, WY: 11/13/2019 17:53
Visibility10 statute mileslots of clouds
View 7-Day Forecast
Area Summary
Sky/CloudsFew at 8000ft, Solid Overcast at 9500ft
Weather [last 24 hours]None [snow began 04:39; snow ended 05:04; unknown precip ended 08:14 ]
Pressure30.1 in.Hg (1019 hPa)
Dew Point27 °F (-2.8 °C)
Relative Humidity61.6 %
Last 24-Hour Precip.Trace
Reading TimePrecipitation
6-hr ending 11/13@10:53Trace
6-hr ending 11/13@04:53Trace
Temperature39 °F (3.9 °C)red thermometer
Wind Chill33.3 °F (0.745 °C)
Reading TimeMinimum to Maximum Temperature
6-hr ending 11/13@16:5336 °F to 48 °F (2.2 °C to 8.9 °C)
6-hr ending 11/13@10:5335.1 °F to 39.9 °F (1.7 °C to 4.4 °C)
6-hr ending 11/13@04:5337 °F to 46 °F (2.8 °C to 7.8 °C)
6-hr ending 11/12@22:5339 °F to 48.9 °F (3.9 °C to 9.4 °C)
24-hr ending 11/12@23:531.9 °F to 55.9 °F (-16.7 °C to 13.3 °C)
Wind8.06 MPH (7 KT) green arrow pointing 67.5 degrees
Wind FromEast/Northeast (060 Degrees)
Twilight Begins06:20Sunshine Yesterday
Sunrise06:50N/A
Sunset16:41
Twilight Ends17:12
METARKDGW 140053Z AUTO 06007KT 10SM FEW080 OVC095 04/M03 A3010 RMK AO2 SLP200 T00391028
Tags: